Time;durP1;ratioP1;P1;durP2;ratioP2;P2;SDS_P1;SDS_P2;PMS_P1;PMS_P2;Temp;Humidity;BMP_temperature;BMP_pressure;BME280_temperature;BME280_humidity;BME280_pressure;Samples;Min_cycle;Max_cycle;Signal;HPM_P1;HPM_P2
2024/01/22 00:01:56;;;;;;;;;;;;;;;23.16;27.27;100663.28;5035939;28;19913;-70
2024/01/22 00:04:22;;;;;;;;;;;;;;;23.15;27.04;100664.31;5039356;28;20404;-69
2024/01/22 00:06:47;;;;;;;;;;;;;;;23.12;27.24;100670.13;5039230;28;19919;-69
2024/01/22 00:09:12;;;;;;;;;;;;;;;23.08;27.33;100647.19;5036510;28;19933;-70
2024/01/22 00:11:37;;;;;;;;;;;;;;;23.09;27.36;100626.31;5032662;28;19913;-69
2024/01/22 00:14:02;;;;;;;;;;;;;;;23.05;27.14;100638.59;5036494;28;19925;-69
2024/01/22 00:16:28;;;;;;;;;;;;;;;23.03;27.35;100641.53;5045929;28;19914;-70
2024/01/22 00:18:53;;;;;;;;;;;;;;;23.02;27.59;100645.25;5051835;28;19917;-69
2024/01/22 00:21:20;;;;;;;;;;;;;;;23.01;27.56;100640.88;5043854;28;20435;-69
2024/01/22 00:23:45;;;;;;;;;;;;;;;23.00;27.24;100614.81;5043403;28;19913;-69
2024/01/22 00:26:14;;;;;;;;;;;;;;;22.98;27.42;100597.94;5037860;28;19948;-69
2024/01/22 00:28:40;;;;;;;;;;;;;;;22.94;27.39;100602.91;5039808;28;20043;-69
2024/01/22 00:31:05;;;;;;;;;;;;;;;22.93;27.51;100598.50;5036860;28;19917;-69
2024/01/22 00:33:31;;;;;;;;;;;;;;;22.91;27.53;100584.34;5035563;28;19933;-79
2024/01/22 00:35:56;;;;;;;;;;;;;;;22.92;27.56;100583.28;5036875;28;19940;-77
2024/01/22 00:38:21;;;;;;;;;;;;;;;22.85;27.71;100604.09;5048848;28;19917;-78
2024/01/22 00:40:46;;;;;;;;;;;;;;;22.83;27.55;100570.09;5041147;28;19913;-78
2024/01/22 00:43:11;;;;;;;;;;;;;;;22.80;27.55;100560.47;5039348;28;19913;-79
2024/01/22 00:45:39;;;;;;;;;;;;;;;22.80;27.72;100579.44;5036538;28;19925;-78
2024/01/22 00:48:05;;;;;;;;;;;;;;;22.78;27.63;100549.00;5033270;28;19921;-78
2024/01/22 00:50:30;;;;;;;;;;;;;;;22.77;28.03;100552.78;5053385;28;19937;-79
2024/01/22 00:52:55;;;;;;;;;;;;;;;22.75;27.81;100551.28;5038377;28;19927;-76
2024/01/22 00:55:21;;;;;;;;;;;;;;;22.70;27.71;100528.34;5038076;28;19967;-78
2024/01/22 00:57:47;;;;;;;;;;;;;;;22.67;27.70;100528.75;5034276;28;19917;-79
2024/01/22 01:00:12;;;;;;;;;;;;;;;22.66;28.03;100520.81;5039600;28;19924;-79
2024/01/22 01:02:37;;;;;;;;;;;;;;;22.65;28.03;100527.28;5039383;28;20469;-79
2024/01/22 01:05:03;;;;;;;;;;;;;;;22.61;28.26;100528.72;5037553;28;19940;-79
2024/01/22 01:07:28;;;;;;;;;;;;;;;22.58;28.29;100511.00;5042411;28;20437;-79
2024/01/22 01:09:53;;;;;;;;;;;;;;;22.57;28.33;100538.31;5034999;28;19925;-79
2024/01/22 01:12:18;;;;;;;;;;;;;;;22.58;28.17;100531.84;5034071;28;19943;-69
2024/01/22 01:14:44;;;;;;;;;;;;;;;22.55;28.12;100543.91;5049895;28;19976;-79
2024/01/22 01:17:09;;;;;;;;;;;;;;;22.53;28.12;100556.81;5043505;28;19918;-76
2024/01/22 01:19:35;;;;;;;;;;;;;;;22.52;28.23;100557.88;5038384;28;20330;-78
2024/01/22 01:22:00;;;;;;;;;;;;;;;22.51;28.18;100555.34;5033907;28;19976;-79
2024/01/22 01:24:26;;;;;;;;;;;;;;;22.49;28.10;100562.84;5039922;28;19940;-79
2024/01/22 01:26:51;;;;;;;;;;;;;;;22.46;28.44;100578.44;5036470;28;19913;-74
2024/01/22 01:29:16;;;;;;;;;;;;;;;22.46;28.35;100564.06;5046517;28;19913;-79
2024/01/22 01:31:42;;;;;;;;;;;;;;;22.43;28.50;100561.78;5043053;28;20412;-78
2024/01/22 01:34:07;;;;;;;;;;;;;;;22.42;28.33;100579.06;5038092;28;20663;-78
2024/01/22 01:36:32;;;;;;;;;;;;;;;22.39;28.51;100564.06;5042279;28;19948;-78
2024/01/22 01:38:57;;;;;;;;;;;;;;;22.36;28.66;100550.91;5036998;28;20115;-79
2024/01/22 01:41:23;;;;;;;;;;;;;;;22.34;28.37;100544.84;5036318;28;19921;-78
2024/01/22 01:43:48;;;;;;;;;;;;;;;22.32;28.60;100536.09;5033246;28;20314;-78
2024/01/22 01:46:13;;;;;;;;;;;;;;;22.31;28.48;100545.25;5032972;28;19984;-79
2024/01/22 01:48:38;;;;;;;;;;;;;;;22.31;28.49;100537.13;5044200;28;19916;-78
2024/01/22 01:51:03;;;;;;;;;;;;;;;22.28;28.86;100544.81;5039537;28;19923;-79
2024/01/22 01:53:29;;;;;;;;;;;;;;;22.24;28.63;100511.88;5036796;28;19917;-79
2024/01/22 01:55:54;;;;;;;;;;;;;;;22.23;28.63;100512.91;5037217;28;19913;-78
2024/01/22 01:58:19;;;;;;;;;;;;;;;22.22;29.14;100497.72;5036509;28;19944;-79
2024/01/22 02:00:45;;;;;;;;;;;;;;;22.20;28.71;100492.47;5043535;28;19920;-79
2024/01/22 02:03:11;;;;;;;;;;;;;;;22.17;28.83;100482.06;5047043;28;19932;-79
2024/01/22 02:05:36;;;;;;;;;;;;;;;22.15;29.18;100462.47;5043116;28;19913;-79
2024/01/22 02:08:01;;;;;;;;;;;;;;;22.14;28.92;100481.63;5038167;28;19921;-79
2024/01/22 02:10:26;;;;;;;;;;;;;;;22.12;28.98;100452.03;5036724;28;19913;-79
2024/01/22 02:12:51;;;;;;;;;;;;;;;22.12;29.23;100438.50;5037193;28;20028;-79
2024/01/22 02:15:17;;;;;;;;;;;;;;;22.09;29.07;100424.47;5036260;28;20005;-79
2024/01/22 02:17:43;;;;;;;;;;;;;;;22.06;29.44;100420.31;5035111;28;19914;-79
2024/01/22 02:20:08;;;;;;;;;;;;;;;22.05;29.32;100434.91;5041100;28;19955;-79
2024/01/22 02:22:33;;;;;;;;;;;;;;;22.03;29.32;100406.34;5038607;28;20108;-78
2024/01/22 02:24:59;;;;;;;;;;;;;;;22.00;29.31;100410.28;5043144;28;19923;-79
2024/01/22 02:27:24;;;;;;;;;;;;;;;21.99;29.51;100396.97;5044885;28;19935;-79
2024/01/22 02:29:50;;;;;;;;;;;;;;;21.96;29.45;100369.28;5042164;28;19963;-78
2024/01/22 02:32:15;;;;;;;;;;;;;;;21.94;29.37;100381.31;5035959;28;19918;-79
2024/01/22 02:34:40;;;;;;;;;;;;;;;21.93;29.56;100375.09;5038091;28;19924;-78
2024/01/22 02:37:05;;;;;;;;;;;;;;;21.84;29.42;100341.13;5034402;28;19920;-79
2024/01/22 02:39:30;;;;;;;;;;;;;;;21.88;29.66;100346.97;5038444;28;19912;-79
2024/01/22 02:41:56;;;;;;;;;;;;;;;21.87;29.78;100337.16;5038762;28;19939;-77
2024/01/22 02:44:21;;;;;;;;;;;;;;;21.85;29.56;100336.53;5036141;28;19917;-78
2024/01/22 02:46:46;;;;;;;;;;;;;;;21.84;29.76;100327.59;5047630;28;19918;-79
2024/01/22 02:49:11;;;;;;;;;;;;;;;21.83;29.86;100334.00;5039198;28;19919;-77
2024/01/22 02:51:36;;;;;;;;;;;;;;;21.82;29.81;100332.34;5038069;28;19935;-79
2024/01/22 02:54:02;;;;;;;;;;;;;;;21.81;29.89;100319.03;5039195;28;19918;-79
2024/01/22 02:56:27;;;;;;;;;;;;;;;21.80;30.00;100318.19;5046514;28;19917;-79
2024/01/22 02:58:52;;;;;;;;;;;;;;;21.78;30.04;100314.84;5042500;28;19917;-78
2024/01/22 03:01:17;;;;;;;;;;;;;;;21.75;29.90;100311.69;5038591;28;20003;-79
2024/01/22 03:03:43;;;;;;;;;;;;;;;21.74;29.90;100310.03;5040237;28;19921;-79
2024/01/22 03:06:08;;;;;;;;;;;;;;;21.74;30.21;100299.22;5036126;28;19949;-79
2024/01/22 03:08:33;;;;;;;;;;;;;;;21.73;30.12;100270.50;5039441;28;19926;-79
2024/01/22 03:10:58;;;;;;;;;;;;;;;21.71;30.27;100268.84;5039291;28;19920;-79
2024/01/22 03:13:24;;;;;;;;;;;;;;;21.70;30.00;100263.59;5046663;28;19960;-79
2024/01/22 03:15:49;;;;;;;;;;;;;;;21.69;30.35;100268.19;5043749;28;19959;-79
2024/01/22 03:18:14;;;;;;;;;;;;;;;21.66;30.31;100268.63;5038526;28;19917;-79
2024/01/22 03:20:39;;;;;;;;;;;;;;;21.69;30.28;100253.81;5039494;28;19954;-79
2024/01/22 03:23:04;;;;;;;;;;;;;;;21.66;30.30;100254.22;5038223;28;19913;-79
2024/01/22 03:25:30;;;;;;;;;;;;;;;21.66;30.14;100249.69;5039143;28;19917;-77
2024/01/22 03:27:55;;;;;;;;;;;;;;;21.67;30.31;100245.94;5039277;28;19913;-79
2024/01/22 03:30:20;;;;;;;;;;;;;;;21.67;30.42;100247.81;5036449;28;19913;-78
2024/01/22 03:32:45;;;;;;;;;;;;;;;21.65;30.39;100220.09;5042275;28;19917;-75
2024/01/22 03:35:11;;;;;;;;;;;;;;;21.66;30.41;100233.44;5039467;28;19913;-78
2024/01/22 03:37:36;;;;;;;;;;;;;;;21.64;30.30;100238.22;5050711;28;19920;-79
2024/01/22 03:40:01;;;;;;;;;;;;;;;21.64;30.36;100243.63;5044551;28;19920;-79
2024/01/22 03:42:26;;;;;;;;;;;;;;;21.65;30.58;100222.81;5039806;28;19975;-79
2024/01/22 03:44:53;;;;;;;;;;;;;;;21.64;30.34;100231.97;5041282;28;19925;-79
2024/01/22 03:47:18;;;;;;;;;;;;;;;21.63;30.49;100243.84;5038342;28;19913;-79
2024/01/22 03:49:43;;;;;;;;;;;;;;;21.61;30.36;100229.66;5037089;28;19939;-79
2024/01/22 03:52:08;;;;;;;;;;;;;;;21.61;30.31;100214.25;5038085;28;19944;-76
2024/01/22 03:54:33;;;;;;;;;;;;;;;21.61;30.67;100216.97;5035009;28;19921;-79
2024/01/22 03:57:06;;;;;;;;;;;;;;;21.59;30.60;100213.63;5050316;28;19966;-79
2024/01/22 03:59:31;;;;;;;;;;;;;;;21.61;30.42;100219.66;5038473;28;19921;-78
2024/01/22 04:01:56;;;;;;;;;;;;;;;21.60;30.63;100206.34;5037767;28;19914;-78
2024/01/22 04:04:21;;;;;;;;;;;;;;;21.60;30.65;100196.38;5037872;28;19913;-79
2024/01/22 04:06:46;;;;;;;;;;;;;;;21.60;30.67;100185.53;5040318;28;19936;-79
2024/01/22 04:09:11;;;;;;;;;;;;;;;21.59;30.54;100183.06;5050413;28;19925;-80
2024/01/22 04:11:37;;;;;;;;;;;;;;;21.60;30.59;100185.53;5052230;28;19948;-78
2024/01/22 04:14:02;;;;;;;;;;;;;;;21.59;30.78;100181.19;5038620;28;19921;-78
2024/01/22 04:16:27;;;;;;;;;;;;;;;21.59;30.96;100185.75;5037389;28;19917;-79
2024/01/22 04:18:52;;;;;;;;;;;;;;;21.59;30.84;100170.34;5035065;28;19932;-79
2024/01/22 04:21:17;;;;;;;;;;;;;;;21.59;30.71;100185.75;5036828;28;19914;-79
2024/01/22 04:23:43;;;;;;;;;;;;;;;21.59;30.62;100159.53;5038253;28;20008;-79
2024/01/22 04:26:08;;;;;;;;;;;;;;;21.59;30.70;100156.00;5046431;28;19970;-79
2024/01/22 04:28:33;;;;;;;;;;;;;;;21.58;30.93;100165.13;5039425;28;19917;-79
2024/01/22 04:30:58;;;;;;;;;;;;;;;21.58;30.95;100166.00;5039872;28;19913;-79
2024/01/22 04:33:23;;;;;;;;;;;;;;;21.57;30.93;100160.78;5041146;28;19925;-79
2024/01/22 04:35:49;;;;;;;;;;;;;;;21.56;30.95;100168.06;5045860;28;19913;-78
2024/01/22 04:38:15;;;;;;;;;;;;;;;21.56;31.03;100161.81;5039774;28;19953;-79
2024/01/22 04:40:40;;;;;;;;;;;;;;;21.55;30.78;100169.09;5036845;28;19917;-79
2024/01/22 04:43:05;;;;;;;;;;;;;;;21.56;31.00;100159.94;5035851;28;19919;-79
2024/01/22 04:45:30;;;;;;;;;;;;;;;21.56;30.72;100151.00;5037470;28;19917;-79
2024/01/22 04:47:55;;;;;;;;;;;;;;;21.56;31.15;100154.53;5042442;28;19913;-78
2024/01/22 04:50:21;;;;;;;;;;;;;;;21.56;31.01;100167.22;5047042;28;20397;-79
2024/01/22 04:52:46;;;;;;;;;;;;;;;21.57;31.09;100163.47;5034966;28;19921;-77
2024/01/22 04:55:11;;;;;;;;;;;;;;;21.56;31.19;100156.41;5041671;28;19925;-78
2024/01/22 04:57:36;;;;;;;;;;;;;;;21.56;31.27;100162.66;5036965;28;19937;-79
2024/01/22 05:00:02;;;;;;;;;;;;;;;21.57;31.06;100147.25;5037855;28;19913;-78
2024/01/22 05:02:27;;;;;;;;;;;;;;;21.54;31.03;100124.16;5035569;28;19917;-77
2024/01/22 05:04:56;;;;;;;;;;;;;;;21.55;31.15;100117.69;5029331;28;19913;-78
2024/01/22 05:07:22;;;;;;;;;;;;;;;21.55;31.08;100122.28;5041209;28;20016;-78
2024/01/22 05:09:47;;;;;;;;;;;;;;;21.54;31.16;100124.16;5043268;28;19913;-79
2024/01/22 05:12:12;;;;;;;;;;;;;;;21.55;31.26;100138.50;5031990;28;19917;-79
2024/01/22 05:14:40;;;;;;;;;;;;;;;21.55;31.35;100130.41;5035220;28;20014;-79
2024/01/22 05:17:05;;;;;;;;;;;;;;;21.54;31.04;100128.75;5035261;28;19928;-79
2024/01/22 05:19:30;;;;;;;;;;;;;;;21.54;31.05;100110.63;5047796;28;19975;-79
2024/01/22 05:21:56;;;;;;;;;;;;;;;21.58;31.27;100135.38;5039134;28;19917;-75
2024/01/22 05:24:21;;;;;;;;;;;;;;;21.54;31.39;100117.91;5044479;28;19917;-74
2024/01/22 05:26:46;;;;;;;;;;;;;;;21.54;31.40;100117.91;5040753;28;19913;-78
2024/01/22 05:29:11;;;;;;;;;;;;;;;21.53;31.45;100103.53;5033595;28;19913;-77
2024/01/22 05:31:36;;;;;;;;;;;;;;;21.55;31.35;100104.19;5036456;28;19952;-77
2024/01/22 05:34:01;;;;;;;;;;;;;;;21.55;31.31;100104.19;5034882;28;20673;-77
2024/01/22 05:36:27;;;;;;;;;;;;;;;21.56;31.51;100111.25;5036844;28;19936;-78
2024/01/22 05:38:52;;;;;;;;;;;;;;;21.55;31.56;100115.00;5044199;28;19918;-76
2024/01/22 05:41:17;;;;;;;;;;;;;;;21.54;31.59;100117.91;5042231;28;20010;-77
2024/01/22 05:43:42;;;;;;;;;;;;;;;21.52;31.32;100117.28;5039252;28;19913;-76
2024/01/22 05:46:07;;;;;;;;;;;;;;;21.52;31.79;100114.56;5044070;28;19925;-75
2024/01/22 05:48:33;;;;;;;;;;;;;;;21.52;31.76;100115.41;5037394;28;19913;-73
2024/01/22 05:50:58;;;;;;;;;;;;;;;21.51;31.67;100108.34;5036975;28;19960;-73
2024/01/22 05:53:23;;;;;;;;;;;;;;;21.52;31.77;100138.91;5036162;28;19921;-73
2024/01/22 05:55:48;;;;;;;;;;;;;;;21.52;32.14;100138.91;5034550;28;19945;-74
2024/01/22 05:58:13;;;;;;;;;;;;;;;21.51;32.16;100127.25;5034629;28;19921;-74
2024/01/22 06:00:39;;;;;;;;;;;;;;;21.51;32.07;100137.25;5039072;28;19940;-73
2024/01/22 06:03:04;;;;;;;;;;;;;;;21.50;32.21;100136.44;5036358;28;19921;-75
2024/01/22 06:05:29;;;;;;;;;;;;;;;21.51;32.20;100134.56;5046927;28;19953;-76
2024/01/22 06:07:54;;;;;;;;;;;;;;;21.51;32.63;100121.03;5037590;28;19925;-77
2024/01/22 06:10:20;;;;;;;;;;;;;;;21.51;32.38;100123.72;5035931;28;19924;-75
2024/01/22 06:12:45;;;;;;;;;;;;;;;21.48;32.65;100129.53;5032971;28;19917;-72
2024/01/22 06:15:10;;;;;;;;;;;;;;;21.49;32.79;100145.56;5045731;28;19912;-74
2024/01/22 06:17:35;;;;;;;;;;;;;;;21.48;32.72;100143.06;5050846;28;19996;-73
2024/01/22 06:20:01;;;;;;;;;;;;;;;21.47;32.65;100153.06;5043115;28;20602;-75
2024/01/22 06:22:29;;;;;;;;;;;;;;;21.47;32.83;100163.88;5039315;28;20012;-73
2024/01/22 06:24:54;;;;;;;;;;;;;;;21.47;32.90;100158.47;5027121;28;19917;-73
2024/01/22 06:27:19;;;;;;;;;;;;;;;21.46;33.33;100163.03;5030261;28;19952;-74
2024/01/22 06:29:44;;;;;;;;;;;;;;;21.46;33.45;100154.09;5032737;28;19984;-74
2024/01/22 06:32:10;;;;;;;;;;;;;;;21.46;33.21;100152.22;5050266;28;19962;-73
2024/01/22 06:34:35;;;;;;;;;;;;;;;21.46;33.21;100164.91;5046178;28;19940;-74
2024/01/22 06:37:00;;;;;;;;;;;;;;;21.46;33.60;100160.34;5035506;28;19949;-73
2024/01/22 06:39:26;;;;;;;;;;;;;;;21.46;33.46;100152.22;5036919;28;19917;-73
2024/01/22 06:41:51;;;;;;;;;;;;;;;21.46;33.70;100163.03;5036308;28;19913;-72
2024/01/22 06:44:16;;;;;;;;;;;;;;;21.45;33.71;100164.09;5036934;28;20296;-74
2024/01/22 06:46:41;;;;;;;;;;;;;;;21.46;33.70;100167.63;5034169;28;19973;-73
2024/01/22 06:49:07;;;;;;;;;;;;;;;21.45;33.88;100160.53;5036451;28;19935;-73
2024/01/22 06:51:33;;;;;;;;;;;;;;;21.45;33.71;100138.88;5030469;28;19929;-73
2024/01/22 06:53:58;;;;;;;;;;;;;;;21.44;33.87;100146.16;5038189;28;19922;-72
2024/01/22 06:56:23;;;;;;;;;;;;;;;21.45;33.57;100157.81;5040070;28;19917;-72
2024/01/22 06:58:48;;;;;;;;;;;;;;;21.45;33.83;100160.53;5042663;28;20484;-73
2024/01/22 07:01:14;;;;;;;;;;;;;;;21.46;33.96;100159.50;5032222;28;20441;-73
2024/01/22 07:03:39;;;;;;;;;;;;;;;21.46;33.70;100157.63;5035478;28;20374;-72
2024/01/22 07:06:04;;;;;;;;;;;;;;;21.45;33.97;100161.38;5035295;28;20390;-72
2024/01/22 07:08:29;;;;;;;;;;;;;;;21.46;33.94;100168.44;5037801;28;20514;-73
2024/01/22 07:10:54;;;;;;;;;;;;;;;21.46;34.06;100184.69;5035500;28;19963;-72
2024/01/22 07:13:20;;;;;;;;;;;;;;;21.47;33.94;100171.97;5033780;28;19953;-73
2024/01/22 07:15:45;;;;;;;;;;;;;;;21.47;34.09;100188.22;5042638;28;20304;-71
2024/01/22 07:18:10;;;;;;;;;;;;;;;21.47;33.87;100177.41;5040075;28;19913;-73
2024/01/22 07:20:35;;;;;;;;;;;;;;;21.46;34.15;100184.69;5034318;28;19913;-73
2024/01/22 07:23:00;;;;;;;;;;;;;;;21.47;33.87;100190.91;5034586;28;19920;-74
2024/01/22 07:25:26;;;;;;;;;;;;;;;21.46;33.62;100184.69;5035977;28;19936;-73
2024/01/22 07:27:51;;;;;;;;;;;;;;;21.46;33.84;100198.19;5040797;28;19920;-72
2024/01/22 07:30:16;;;;;;;;;;;;;;;21.47;34.02;100201.72;5051418;28;20417;-68
2024/01/22 07:32:42;;;;;;;;;;;;;;;21.46;34.00;100205.47;5038809;28;19921;-69
2024/01/22 07:35:08;;;;;;;;;;;;;;;21.45;34.28;100201.94;5029422;28;19929;-68
2024/01/22 07:37:34;;;;;;;;;;;;;;;21.45;34.07;100201.94;5037542;28;19912;-68
2024/01/22 07:40:00;;;;;;;;;;;;;;;21.45;34.00;100211.91;5040056;28;19985;-69
2024/01/22 07:42:25;;;;;;;;;;;;;;;21.45;33.90;100215.47;5041059;28;19917;-68
2024/01/22 07:44:50;;;;;;;;;;;;;;;21.47;34.49;100196.31;5048522;28;20435;-67
2024/01/22 07:47:16;;;;;;;;;;;;;;;21.46;34.24;100216.31;5043806;28;19919;-68
2024/01/22 07:49:41;;;;;;;;;;;;;;;21.46;34.44;100219.00;5041334;28;19913;-68
2024/01/22 07:52:06;;;;;;;;;;;;;;;21.46;34.57;100213.59;5040402;28;19913;-68
2024/01/22 07:54:31;;;;;;;;;;;;;;;21.46;34.34;100216.31;5043434;28;19920;-68
2024/01/22 07:56:57;;;;;;;;;;;;;;;21.45;34.32;100212.78;5040498;28;19917;-68
2024/01/22 07:59:22;;;;;;;;;;;;;;;21.46;34.28;100227.94;5037728;28;20341;-68
2024/01/22 08:01:47;;;;;;;;;;;;;;;21.46;34.65;100217.13;5038428;28;19918;-67
2024/01/22 08:04:12;;;;;;;;;;;;;;;21.46;34.62;100224.41;5037854;28;19918;-68
2024/01/22 08:06:38;;;;;;;;;;;;;;;21.46;34.53;100209.03;5037146;28;19921;-69
2024/01/22 08:09:03;;;;;;;;;;;;;;;21.44;34.31;100234.59;5044545;28;19964;-69
2024/01/22 08:11:28;;;;;;;;;;;;;;;21.45;34.69;100230.84;5042251;28;20016;-69
2024/01/22 08:13:53;;;;;;;;;;;;;;;21.45;34.64;100236.25;5045683;28;19921;-69
2024/01/22 08:16:18;;;;;;;;;;;;;;;21.46;34.28;100227.94;5038729;28;19921;-69
2024/01/22 08:18:44;;;;;;;;;;;;;;;21.46;34.62;100230.66;5039418;28;19921;-68
2024/01/22 08:21:09;;;;;;;;;;;;;;;21.47;34.33;100234.19;5035870;28;19956;-69
2024/01/22 08:23:34;;;;;;;;;;;;;;;21.48;34.71;100238.56;5039959;28;19917;-69
2024/01/22 08:26:00;;;;;;;;;;;;;;;21.48;34.68;100243.97;5040807;28;20020;-68
2024/01/22 08:28:26;;;;;;;;;;;;;;;21.48;34.57;100241.25;5040022;28;19914;-68
2024/01/22 08:30:51;;;;;;;;;;;;;;;21.48;34.80;100246.66;5037994;28;19959;-69
2024/01/22 08:33:16;;;;;;;;;;;;;;;21.00;34.34;100148.47;5038909;28;19967;-68
2024/01/22 08:35:42;;;;;;;;;;;;;;;21.49;34.43;100232.09;5038828;28;19917;-70
2024/01/22 08:38:07;;;;;;;;;;;;;;;21.51;34.98;100242.75;5050286;28;19913;-72
2024/01/22 08:40:32;;;;;;;;;;;;;;;21.50;34.48;100239.19;5048485;28;19924;-73
2024/01/22 08:42:58;;;;;;;;;;;;;;;21.51;34.85;100246.28;5042943;28;19920;-73
2024/01/22 08:45:23;;;;;;;;;;;;;;;21.51;34.90;100246.28;5043919;28;20402;-73
2024/01/22 08:47:48;;;;;;;;;;;;;;;21.51;34.94;100240.88;5040478;28;19912;-73
2024/01/22 08:50:23;;;;;;;;;;;;;;;21.51;34.93;100258.97;5036773;28;19949;-73
2024/01/22 08:52:49;;;;;;;;;;;;;;;21.51;34.94;100254.38;5034433;28;19966;-73
2024/01/22 08:55:18;;;;;;;;;;;;;;;21.50;34.96;100260.84;5039791;28;19978;-72
2024/01/22 08:57:43;;;;;;;;;;;;;;;21.51;34.99;100272.50;5041643;28;19925;-73
2024/01/22 09:00:12;;;;;;;;;;;;;;;21.50;35.06;100266.25;5041529;28;19917;-73
2024/01/22 09:02:40;;;;;;;;;;;;;;;21.51;35.11;100280.59;5032872;28;19921;-72
2024/01/22 09:05:09;;;;;;;;;;;;;;;21.50;35.00;100285.19;5039328;28;19917;-74
2024/01/22 09:07:34;;;;;;;;;;;;;;;21.51;35.13;100294.13;5038716;28;19948;-73
2024/01/22 09:10:00;;;;;;;;;;;;;;;21.51;35.25;100300.38;5033106;28;20418;-73
2024/01/22 09:12:25;;;;;;;;;;;;;;;21.49;35.20;100296.19;5042574;28;19897;-73
2024/01/22 09:14:50;;;;;;;;;;;;;;;21.49;35.23;100286.19;5042173;28;19924;-76
2024/01/22 09:17:16;;;;;;;;;;;;;;;21.49;35.67;100291.59;5036761;28;19917;-72
2024/01/22 09:19:41;;;;;;;;;;;;;;;21.46;35.56;100311.78;5035097;28;19920;-72
2024/01/22 09:22:06;;;;;;;;;;;;;;;21.44;35.68;100294.91;5038497;28;19924;-73
2024/01/22 09:24:31;;;;;;;;;;;;;;;21.45;35.61;100303.84;5042592;28;19913;-74
2024/01/22 09:26:57;;;;;;;;;;;;;;;21.44;35.71;100299.50;5041779;28;19948;-73
2024/01/22 09:29:22;;;;;;;;;;;;;;;21.42;35.69;100310.53;5034895;28;19935;-73
2024/01/22 09:31:47;;;;;;;;;;;;;;;21.42;35.88;100315.09;5035029;28;19919;-74
2024/01/22 09:34:12;;;;;;;;;;;;;;;21.40;35.69;100315.28;5034988;28;19951;-74
2024/01/22 09:36:37;;;;;;;;;;;;;;;21.41;35.71;100313.44;5039036;28;20000;-73
2024/01/22 09:39:03;;;;;;;;;;;;;;;21.40;35.82;100322.56;5042724;28;19921;-74
2024/01/22 09:41:28;;;;;;;;;;;;;;;21.39;36.02;100318.19;5035654;28;20744;-73
2024/01/22 09:43:54;;;;;;;;;;;;;;;21.38;35.61;100330.88;5033380;28;19923;-74
2024/01/22 09:46:19;;;;;;;;;;;;;;;21.37;35.97;100331.94;5031391;28;19917;-74
2024/01/22 09:48:44;;;;;;;;;;;;;;;21.37;36.02;100334.63;5035730;28;19925;-74
2024/01/22 09:51:09;;;;;;;;;;;;;;;21.37;35.70;100339.22;5043813;28;19916;-74
2024/01/22 09:53:37;;;;;;;;;;;;;;;21.35;35.83;100346.66;5044571;28;19921;-74
2024/01/22 09:56:04;;;;;;;;;;;;;;;21.34;35.99;100355.81;5035232;28;19960;-73
2024/01/22 09:58:30;;;;;;;;;;;;;;;21.32;36.10;100349.75;5035034;28;20650;-73
2024/01/22 10:00:55;;;;;;;;;;;;;;;21.30;36.16;100341.81;5033519;28;19917;-73
2024/01/22 10:03:20;;;;;;;;;;;;;;;21.30;36.17;100358.03;5036678;28;20369;-73
2024/01/22 10:05:46;;;;;;;;;;;;;;;21.30;35.86;100362.63;5035292;28;19925;-72
2024/01/22 10:08:11;;;;;;;;;;;;;;;21.29;36.25;100369.06;5034168;28;19944;-72
2024/01/22 10:10:37;;;;;;;;;;;;;;;21.27;36.03;100380.06;5036819;28;19927;-73
2024/01/22 10:13:03;;;;;;;;;;;;;;;21.27;36.31;100396.28;5035771;28;20008;-73
2024/01/22 10:15:29;;;;;;;;;;;;;;;21.25;35.95;100384.00;5034766;28;19967;-73
2024/01/22 10:18:07;;;;;;;;;;;;;;;21.26;36.26;100394.63;5033589;28;19921;-73
2024/01/22 10:20:33;;;;;;;;;;;;;;;21.23;36.02;100393.13;5016995;28;19921;-74
2024/01/22 10:23:01;;;;;;;;;;;;;;;21.22;36.27;100405.00;5037224;28;19920;-75
2024/01/22 10:25:26;;;;;;;;;;;;;;;21.20;36.10;100404.38;5039996;28;19924;-74
2024/01/22 10:28:06;;;;;;;;;;;;;;;21.21;36.03;100399.78;5038076;28;19921;-75
2024/01/22 10:30:31;;;;;;;;;;;;;;;21.19;36.26;100388.31;5035464;28;19932;-73
2024/01/22 10:33:11;;;;;;;;;;;;;;;21.20;36.18;100390.84;5034597;28;19917;-74
2024/01/22 10:35:36;;;;;;;;;;;;;;;21.20;36.00;100395.41;5035046;28;19988;-75
2024/01/22 10:38:09;;;;;;;;;;;;;;;21.21;35.93;100386.28;5036302;28;19959;-74
2024/01/22 10:40:34;;;;;;;;;;;;;;;21.22;36.27;100398.75;5035274;28;19913;-75
2024/01/22 10:43:02;;;;;;;;;;;;;;;21.23;36.04;100409.34;5033648;28;19975;-74
2024/01/22 10:45:27;;;;;;;;;;;;;;;21.25;36.14;100411.88;5040384;28;19920;-75
2024/01/22 10:47:53;;;;;;;;;;;;;;;21.28;36.09;100416.03;5051220;28;19921;-76
2024/01/22 10:50:18;;;;;;;;;;;;;;;21.29;35.99;100420.44;5047537;28;20345;-73
2024/01/22 10:52:43;;;;;;;;;;;;;;;21.31;36.10;100415.66;5042826;28;19917;-74
2024/01/22 10:55:08;;;;;;;;;;;;;;;21.34;36.04;100418.84;5032170;28;20000;-73
2024/01/22 10:57:35;;;;;;;;;;;;;;;21.35;35.91;100434.03;5038307;28;19917;-72
2024/01/22 11:00:00;;;;;;;;;;;;;;;21.38;35.99;100432.81;5035335;28;20019;-78
2024/01/22 11:02:28;;;;;;;;;;;;;;;21.40;35.71;100436.16;5041481;28;19913;-75
2024/01/22 11:04:55;;;;;;;;;;;;;;;21.42;35.95;100437.63;5038443;28;19940;-74
2024/01/22 11:07:22;;;;;;;;;;;;;;;21.45;35.80;100448.06;5036456;28;19922;-73
2024/01/22 11:09:48;;;;;;;;;;;;;;;21.49;35.86;100447.66;5041955;28;19921;-74
2024/01/22 11:12:13;;;;;;;;;;;;;;;21.50;35.57;100457.47;5032907;28;19913;-73
2024/01/22 11:14:39;;;;;;;;;;;;;;;21.53;35.57;100466.00;5039263;28;19921;-72
2024/01/22 11:17:08;;;;;;;;;;;;;;;21.56;35.73;100470.19;5033723;28;20367;-73
2024/01/22 11:19:34;;;;;;;;;;;;;;;21.57;35.48;100461.88;5038503;28;20036;-73
2024/01/22 11:22:00;;;;;;;;;;;;;;;21.60;35.47;100474.16;5037999;28;20397;-75
2024/01/22 11:24:25;;;;;;;;;;;;;;;21.61;35.71;100479.38;5035257;28;20328;-75
2024/01/22 11:26:53;;;;;;;;;;;;;;;21.62;35.54;100489.19;5036489;28;19920;-70
2024/01/22 11:29:22;;;;;;;;;;;;;;;21.64;35.61;100484.41;5043662;28;19924;-69
2024/01/22 11:31:48;;;;;;;;;;;;;;;21.68;35.63;100491.09;5042024;28;19914;-70
2024/01/22 11:34:14;;;;;;;;;;;;;;;21.73;35.35;100495.06;5043374;28;20428;-70
2024/01/22 11:36:48;;;;;;;;;;;;;;;21.75;35.49;100493.00;5038974;28;20677;-68
2024/01/22 11:39:33;;;;;;;;;;;;;;;21.77;35.36;100499.91;5040263;28;19917;-67
2024/01/22 11:41:58;;;;;;;;;;;;;;;21.80;35.29;100513.03;5035724;28;20529;-70
2024/01/22 11:44:26;;;;;;;;;;;;;;;21.83;35.18;100504.50;5044686;28;19917;-69
2024/01/22 11:47:11;;;;;;;;;;;;;;;21.85;35.32;100499.75;5035695;28;19914;-69
2024/01/22 11:49:36;;;;;;;;;;;;;;;21.88;35.19;100517.47;5034859;28;20143;-69
2024/01/22 11:52:11;;;;;;;;;;;;;;;21.86;35.02;100517.66;5035612;28;19952;-69
2024/01/22 11:54:36;;;;;;;;;;;;;;;21.90;35.17;100512.69;5033542;28;20175;-71
2024/01/22 11:57:02;;;;;;;;;;;;;;;21.93;35.06;100525.81;5043491;28;20452;-69
2024/01/22 11:59:27;;;;;;;;;;;;;;;21.96;34.76;100517.28;5045553;28;19913;-69
2024/01/22 12:02:03;;;;;;;;;;;;;;;22.00;35.15;100515.84;5048282;28;19928;-70
2024/01/22 12:04:29;;;;;;;;;;;;;;;22.05;34.87;100523.41;5045787;28;19917;-70
2024/01/22 12:06:54;;;;;;;;;;;;;;;22.09;34.71;100519.25;5037008;28;19921;-71
2024/01/22 12:09:19;;;;;;;;;;;;;;;22.16;34.54;100528.28;5018855;28;19925;-71
2024/01/22 12:11:51;;;;;;;;;;;;;;;22.20;34.53;100535.81;5037460;28;19921;-71
2024/01/22 12:14:16;;;;;;;;;;;;;;;22.27;34.38;100537.72;5038176;28;19921;-72
2024/01/22 12:16:41;;;;;;;;;;;;;;;22.29;34.19;100539.19;5037634;28;19924;-73
2024/01/22 12:19:10;;;;;;;;;;;;;;;22.31;33.98;100542.53;5041432;28;19932;-73
2024/01/22 12:21:35;;;;;;;;;;;;;;;22.29;33.96;100541.91;5043281;28;19948;-76
2024/01/22 12:24:09;;;;;;;;;;;;;;;22.30;34.23;100548.16;5036333;28;19913;-74
2024/01/22 12:26:37;;;;;;;;;;;;;;;22.35;33.91;100553.81;5039652;28;19937;-74
2024/01/22 12:29:04;;;;;;;;;;;;;;;22.39;34.01;100566.75;5032641;28;19924;-74